KTVL

Lake Tahoe Airport

South Lake Tahoe, California, USA
KTVL 182332Z 1900/1924 19009KT P6SM FEW035 OVC120 FM190600 19008KT P6SM VCSH SCT010 SCT020 OVC040 FM191500 19006KT P6SM SCT035 BKN120
Issued Valid From Valid To
Jan-18 @ 23:32 UTC
(3 hours ago)
Jan-19 @ 00:00 UTC
(2 hours ago)
Jan-20 @ 00:00 UTC
(in 22 hours)
Jan-19 @ 00:00 to Jan-19 @ 06:00
KTVL 182332Z 1900/1924 19009KT P6SM FEW035 OVC120
Wind Visibility Clouds
190° at 9 knots Greater than 6 miles
  • Few at 3,500' AGL
  • Overcast at 12,000' AGL
From Jan-19 @ 06:00 to Jan-19 @ 15:00
FM190600 19008KT P6SM VCSH SCT010 SCT020 OVC040
Wind Visibility Clouds
190° at 8 knots Greater than 6 miles
  • Scattered at 1,000' AGL
  • Scattered at 2,000' AGL
  • Overcast at 4,000' AGL
From Jan-19 @ 15:00 to Jan-20 @ 00:00
FM191500 19006KT P6SM SCT035 BKN120
Wind Visibility Clouds
190° at 6 knots Greater than 6 miles
  • Scattered at 3,500' AGL
  • Broken at 12,000' AGL
KTVL 182332Z 1900/1924 19009KT P6SM FEW035 OVC120 FM190600 19008KT P6SM VCSH SCT010 SCT020 OVC040 FM191500 19006KT P6SM SCT035 BKN120
Issued Jan-18 @ 23:32 UTC
(3 hours ago)
Valid From Jan-19 @ 00:00 UTC
(2 hours ago)
Valid To Jan-20 @ 00:00 UTC
(in 22 hours)
Jan-19 @ 00:00 - Jan-19 @ 06:00
Wind Visibility
190° at 9 knots Greater than 6 miles
Clouds
  • Few at 3,500' AGL
  • Overcast at 12,000' AGL
From Jan-19 @ 06:00 - Jan-19 @ 15:00
Wind Visibility
190° at 8 knots Greater than 6 miles
Clouds
  • Scattered at 1,000' AGL
  • Scattered at 2,000' AGL
  • Overcast at 4,000' AGL
From Jan-19 @ 15:00 - Jan-20 @ 00:00
Wind Visibility
190° at 6 knots Greater than 6 miles
Clouds
  • Scattered at 3,500' AGL
  • Broken at 12,000' AGL